Time;durP1;ratioP1;P1;durP2;ratioP2;P2;SDS_P1;SDS_P2;PMS_P1;PMS_P2;Temp;Humidity;BMP_temperature;BMP_pressure;BME280_temperature;BME280_humidity;BME280_pressure;Samples;Min_cycle;Max_cycle;Signal;HPM_P1;HPM_P2
2021/12/01 00:00:45;;;;;;;;;;;;;;;20.63;43.55;99574.31;7281212;19;152283;-52
2021/12/01 00:03:12;;;;;;;;;;;;;;;20.63;43.85;99568.69;7278591;19;154576;-52
2021/12/01 00:05:39;;;;;;;;;;;;;;;20.62;43.84;99569.88;7278845;19;151632;-52
2021/12/01 00:08:06;;;;;;;;;;;;;;;20.62;43.40;99543.81;7280361;19;153109;-52
2021/12/01 00:10:34;;;;;;;;;;;;;;;20.59;43.92;99552.91;7287738;19;153250;-52
2021/12/01 00:13:03;;;;;;;;;;;;;;;20.60;44.18;99530.13;7281048;19;152994;-52
2021/12/01 00:15:30;;;;;;;;;;;;;;;20.58;44.13;99517.59;7275692;19;153385;-51
2021/12/01 00:17:57;;;;;;;;;;;;;;;20.55;43.99;99507.88;7279941;19;151685;-51
2021/12/01 00:20:23;;;;;;;;;;;;;;;20.52;44.23;99508.56;7279590;19;153331;-51
2021/12/01 00:22:50;;;;;;;;;;;;;;;20.49;44.77;99508.44;7279943;19;153255;-51
2021/12/01 00:25:22;;;;;;;;;;;;;;;20.49;44.96;99502.81;7281122;19;151700;-51
2021/12/01 00:27:52;;;;;;;;;;;;;;;20.47;45.05;99485.50;7278645;19;153407;-51
2021/12/01 00:30:19;;;;;;;;;;;;;;;20.44;44.92;99480.59;7278972;19;154039;-51
2021/12/01 00:32:46;;;;;;;;;;;;;;;20.42;45.11;99464.91;7288331;19;152031;-52
2021/12/01 00:35:13;;;;;;;;;;;;;;;20.38;45.41;99465.94;7279040;19;153082;-52
2021/12/01 00:37:41;;;;;;;;;;;;;;;20.37;45.23;99459.50;7278318;19;152056;-51
2021/12/01 00:40:09;;;;;;;;;;;;;;;20.34;45.59;99457.41;7279679;19;153272;-51
2021/12/01 00:42:36;;;;;;;;;;;;;;;20.32;45.49;99456.91;7277759;19;153216;-52
2021/12/01 00:45:09;;;;;;;;;;;;;;;20.32;46.04;99464.50;7280413;19;152572;-51
2021/12/01 00:47:54;;;;;;;;;;;;;;;20.29;46.19;99462.38;7279689;19;152145;-51
2021/12/01 00:50:22;;;;;;;;;;;;;;;20.28;45.79;99441.91;7277772;19;154861;-51
2021/12/01 00:52:50;;;;;;;;;;;;;;;20.23;45.91;99427.25;7278642;19;151916;-52
2021/12/01 00:55:16;;;;;;;;;;;;;;;20.21;46.17;99418.38;7292651;19;153524;-52
2021/12/01 00:57:43;;;;;;;;;;;;;;;20.18;46.22;99402.22;7282767;19;151760;-52
2021/12/01 01:00:10;;;;;;;;;;;;;;;20.19;46.19;99401.06;7287462;19;153473;-51
2021/12/01 01:02:37;;;;;;;;;;;;;;;20.16;46.25;99397.00;7283608;19;153251;-51
2021/12/01 01:05:05;;;;;;;;;;;;;;;20.12;46.28;99398.03;7285512;19;151912;-52
2021/12/01 01:07:32;;;;;;;;;;;;;;;20.11;46.13;99391.59;7284905;19;152545;-52
2021/12/01 01:10:05;;;;;;;;;;;;;;;20.07;46.42;99389.81;7283655;19;153176;-52
2021/12/01 01:18:06;;;;;;;;;;;;;;;19.98;46.39;99361.84;7288656;19;154120;-51
2021/12/01 01:20:33;;;;;;;;;;;;;;;19.96;46.69;99365.00;7286536;19;153028;-51
2021/12/01 01:22:59;;;;;;;;;;;;;;;19.93;47.00;99362.06;7285214;19;153762;-51
2021/12/01 01:25:27;;;;;;;;;;;;;;;19.96;47.01;99359.38;7282667;19;151902;-51
2021/12/01 01:27:54;;;;;;;;;;;;;;;19.91;46.81;99362.41;7286437;19;152599;-51
2021/12/01 01:30:20;;;;;;;;;;;;;;;19.90;47.20;99365.53;7283892;19;153469;-52
2021/12/01 01:32:47;;;;;;;;;;;;;;;19.92;47.14;99371.63;7285958;19;151872;-52
2021/12/01 01:35:14;;;;;;;;;;;;;;;19.90;46.81;99359.94;7281648;19;153821;-51
2021/12/01 01:37:41;;;;;;;;;;;;;;;19.88;47.29;99357.47;7282984;19;153472;-51
2021/12/01 01:40:08;;;;;;;;;;;;;;;19.85;47.38;99351.75;7292774;19;151825;-51
2021/12/01 01:42:35;;;;;;;;;;;;;;;19.84;47.20;99361.31;7283473;19;154040;-51
2021/12/01 01:45:03;;;;;;;;;;;;;;;19.80;47.47;99364.00;7283628;19;152320;-51
2021/12/01 01:47:30;;;;;;;;;;;;;;;19.80;47.36;99358.38;7284434;19;153693;-51
2021/12/01 01:50:15;;;;;;;;;;;;;;;19.76;47.67;99359.41;7283986;19;153836;-51
2021/12/01 01:52:42;;;;;;;;;;;;;;;19.72;47.46;99348.03;7282097;19;152271;-53
2021/12/01 01:55:09;;;;;;;;;;;;;;;19.74;47.86;99353.31;7282447;19;153610;-51
2021/12/01 01:57:36;;;;;;;;;;;;;;;19.70;47.50;99358.78;7282195;19;154787;-51
2021/12/01 02:00:07;;;;;;;;;;;;;;;19.71;47.78;99365.22;7292463;19;151825;-51
2021/12/01 02:02:34;;;;;;;;;;;;;;;19.65;47.99;99363.78;7281330;19;153707;-51
2021/12/01 02:05:02;;;;;;;;;;;;;;;19.61;48.02;99341.22;7282823;19;152186;-51
2021/12/01 02:07:29;;;;;;;;;;;;;;;19.59;47.84;99343.53;7284088;19;153462;-51
2021/12/01 02:09:56;;;;;;;;;;;;;;;19.58;48.17;99344.69;7283107;19;154019;-51
2021/12/01 02:12:22;;;;;;;;;;;;;;;19.58;47.87;99332.69;7282105;19;151935;-51
2021/12/01 02:14:49;;;;;;;;;;;;;;;19.56;47.82;99333.03;7285118;19;152633;-51
2021/12/01 02:17:16;;;;;;;;;;;;;;;19.55;48.32;99328.56;7276584;19;152586;-52
2021/12/01 02:19:43;;;;;;;;;;;;;;;19.53;48.39;99330.91;7284106;19;152981;-51
2021/12/01 02:22:09;;;;;;;;;;;;;;;19.50;48.38;99307.19;7290827;19;152668;-51
2021/12/01 02:24:39;;;;;;;;;;;;;;;19.48;48.56;99311.50;7284575;19;151529;-51
2021/12/01 02:27:06;;;;;;;;;;;;;;;19.47;48.53;99319.09;7283618;19;152093;-51
2021/12/01 02:29:33;;;;;;;;;;;;;;;19.44;48.31;99308.53;7282500;19;153267;-51
2021/12/01 02:31:59;;;;;;;;;;;;;;;19.43;48.69;99304.13;7284755;19;152726;-52
2021/12/01 02:34:26;;;;;;;;;;;;;;;19.40;48.39;99306.72;7283366;19;152987;-51
2021/12/01 02:36:55;;;;;;;;;;;;;;;19.38;48.65;99304.28;7282401;19;154033;-51
2021/12/01 02:39:22;;;;;;;;;;;;;;;19.35;48.46;99292.97;7281060;19;151969;-51
2021/12/01 02:41:56;;;;;;;;;;;;;;;19.33;48.64;99286.88;7284443;19;152573;-52
2021/12/01 02:44:23;;;;;;;;;;;;;;;19.31;48.50;99277.97;7290104;19;153915;-51
2021/12/01 02:46:50;;;;;;;;;;;;;;;19.28;48.71;99273.88;7283352;19;153241;-51
2021/12/01 02:49:23;;;;;;;;;;;;;;;19.27;48.59;99265.81;7282732;19;153293;-51
2021/12/01 02:51:54;;;;;;;;;;;;;;;19.26;48.87;99265.00;7283262;19;151864;-51
2021/12/01 02:54:21;;;;;;;;;;;;;;;19.25;48.99;99249.38;7282206;19;153264;-51
2021/12/01 02:56:49;;;;;;;;;;;;;;;19.25;48.78;99251.34;7280665;19;153457;-52
2021/12/01 02:59:16;;;;;;;;;;;;;;;19.23;48.84;99243.28;7281734;19;152215;-52
2021/12/01 03:01:44;;;;;;;;;;;;;;;19.24;48.82;99244.94;7281506;19;153344;-52
2021/12/01 03:04:11;;;;;;;;;;;;;;;19.27;49.21;99232.22;7282798;19;153339;-51
2021/12/01 03:06:38;;;;;;;;;;;;;;;19.26;48.97;99223.00;7289438;19;152306;-52
2021/12/01 03:09:05;;;;;;;;;;;;;;;19.22;48.67;99229.63;7284574;19;153203;-51
2021/12/01 03:11:33;;;;;;;;;;;;;;;19.18;49.19;99223.06;7282978;19;151752;-51
2021/12/01 03:14:00;;;;;;;;;;;;;;;19.17;48.82;99229.84;7284999;19;153347;-51
2021/12/01 03:16:26;;;;;;;;;;;;;;;19.16;48.87;99247.81;7282733;19;153246;-52
2021/12/01 03:18:53;;;;;;;;;;;;;;;19.13;49.30;99243.69;7282695;19;152164;-52
2021/12/01 03:21:20;;;;;;;;;;;;;;;19.13;49.18;99242.88;7284465;19;152657;-51
2021/12/01 03:23:47;;;;;;;;;;;;;;;19.13;49.02;99248.47;7281978;19;153352;-51
2021/12/01 03:26:14;;;;;;;;;;;;;;;19.13;49.21;99249.28;7283947;19;152168;-51
2021/12/01 03:28:40;;;;;;;;;;;;;;;19.10;48.83;99253.59;7290757;19;152061;-52
2021/12/01 03:31:07;;;;;;;;;;;;;;;19.08;49.39;99235.47;7284586;19;152127;-51
2021/12/01 03:33:34;;;;;;;;;;;;;;;19.07;49.04;99234.69;7283497;19;153729;-51
2021/12/01 03:36:00;;;;;;;;;;;;;;;19.04;49.09;99224.16;7283060;19;152194;-52
2021/12/01 03:38:27;;;;;;;;;;;;;;;19.05;49.06;99222.19;7282124;19;151853;-52
2021/12/01 03:40:55;;;;;;;;;;;;;;;19.03;49.23;99225.31;7284318;19;153420;-51
2021/12/01 03:43:22;;;;;;;;;;;;;;;19.01;49.06;99215.63;7282553;19;153590;-51
2021/12/01 03:45:49;;;;;;;;;;;;;;;18.99;49.44;99220.72;7283654;19;151841;-51
2021/12/01 03:48:16;;;;;;;;;;;;;;;18.99;49.35;99223.53;7282786;19;153210;-51
2021/12/01 03:50:48;;;;;;;;;;;;;;;18.96;49.23;99210.22;7290143;19;154072;-51
2021/12/01 03:53:19;;;;;;;;;;;;;;;18.97;49.35;99218.28;7283739;19;153315;-52
2021/12/01 03:55:46;;;;;;;;;;;;;;;18.96;49.25;99208.25;7280803;19;153581;-50
2021/12/01 03:58:13;;;;;;;;;;;;;;;18.95;49.11;99209.41;7283021;19;151753;-50
2021/12/01 04:00:40;;;;;;;;;;;;;;;18.94;49.27;99218.16;7282920;19;153325;-50
2021/12/01 04:03:07;;;;;;;;;;;;;;;18.90;49.26;99206.81;7283005;19;153578;-50
2021/12/01 04:05:34;;;;;;;;;;;;;;;18.90;49.46;99208.78;7281925;19;153737;-50
2021/12/01 04:08:02;;;;;;;;;;;;;;;18.88;49.54;99209.13;7282909;19;151671;-51
2021/12/01 04:10:29;;;;;;;;;;;;;;;18.94;50.01;99209.78;7289073;19;153110;-50
2021/12/01 04:12:55;;;;;;;;;;;;;;;18.91;49.85;99207.63;7282491;19;153683;-50
2021/12/01 04:15:23;;;;;;;;;;;;;;;18.88;49.50;99211.94;7281073;19;153883;-50
2021/12/01 04:17:50;;;;;;;;;;;;;;;18.88;49.50;99211.13;7282361;19;151886;-50
2021/12/01 04:20:17;;;;;;;;;;;;;;;18.86;49.95;99211.44;7283242;19;152696;-50
2021/12/01 04:22:44;;;;;;;;;;;;;;;18.82;49.87;99210.50;7281512;19;153893;-50
2021/12/01 04:25:11;;;;;;;;;;;;;;;18.81;50.04;99217.22;7282856;19;151605;-50
2021/12/01 04:27:38;;;;;;;;;;;;;;;18.81;49.68;99208.03;7280693;19;152077;-50
2021/12/01 04:30:07;;;;;;;;;;;;;;;18.81;50.22;99220.03;7288472;19;153905;-50
2021/12/01 04:32:34;;;;;;;;;;;;;;;18.75;49.89;99221.41;7297014;19;151676;-50
2021/12/01 04:35:01;;;;;;;;;;;;;;;18.78;50.14;99237.50;7287496;19;153891;-50
2021/12/01 04:37:28;;;;;;;;;;;;;;;18.74;50.07;99236.56;7288099;19;151776;-50
2021/12/01 04:39:55;;;;;;;;;;;;;;;18.76;49.92;99236.22;7287773;19;152741;-50
2021/12/01 04:42:22;;;;;;;;;;;;;;;18.75;50.04;99228.97;7285387;19;153255;-51
2021/12/01 04:44:49;;;;;;;;;;;;;;;18.73;49.93;99234.91;7289391;19;151557;-51
2021/12/01 04:47:18;;;;;;;;;;;;;;;18.74;50.00;99233.75;7289074;19;152754;-50
2021/12/01 04:49:45;;;;;;;;;;;;;;;18.75;50.50;99242.97;7287419;19;153513;-50
2021/12/01 04:52:12;;;;;;;;;;;;;;;18.76;50.41;99258.59;7287951;19;151919;-50
2021/12/01 04:54:39;;;;;;;;;;;;;;;18.72;50.57;99255.63;7294727;19;151705;-50
2021/12/01 04:57:06;;;;;;;;;;;;;;;18.70;50.26;99263.56;7288692;19;151916;-51
2021/12/01 04:59:33;;;;;;;;;;;;;;;18.71;50.43;99250.41;7286501;19;153260;-50
2021/12/01 05:02:01;;;;;;;;;;;;;;;18.68;50.56;99260.28;7285553;19;152176;-50
2021/12/01 05:04:28;;;;;;;;;;;;;;;18.68;50.82;99265.88;7288559;19;152138;-50
2021/12/01 05:06:55;;;;;;;;;;;;;;;18.63;50.83;99258.47;7285671;19;152580;-51
2021/12/01 05:09:22;;;;;;;;;;;;;;;18.65;50.73;99278.56;7286790;19;153838;-51
2021/12/01 05:11:48;;;;;;;;;;;;;;;18.63;50.68;99274.44;7288543;19;152227;-50
2021/12/01 05:14:15;;;;;;;;;;;;;;;18.62;51.07;99284.81;7287418;19;153726;-50
2021/12/01 05:16:43;;;;;;;;;;;;;;;18.63;50.72;99280.03;7293526;19;154009;-50
2021/12/01 05:19:10;;;;;;;;;;;;;;;18.58;50.72;99277.41;7287277;19;153434;-50
2021/12/01 05:21:37;;;;;;;;;;;;;;;18.61;50.85;99285.16;7284089;19;153317;-50
2021/12/01 05:24:04;;;;;;;;;;;;;;;18.67;50.90;99289.38;7287439;19;151778;-50
2021/12/01 05:26:31;;;;;;;;;;;;;;;18.70;51.06;99273.94;7287666;19;153564;-51
2021/12/01 05:28:58;;;;;;;;;;;;;;;18.73;51.56;99276.88;7287031;19;153677;-50
2021/12/01 05:31:24;;;;;;;;;;;;;;;18.77;51.56;99280.63;7286772;19;151926;-51
2021/12/01 05:33:51;;;;;;;;;;;;;;;18.82;51.34;99283.22;7288414;19;152469;-50
2021/12/01 05:36:18;;;;;;;;;;;;;;;18.88;51.50;99278.28;7283852;19;153918;-50
2021/12/01 05:38:45;;;;;;;;;;;;;;;18.93;51.48;99284.50;7294765;19;151973;-50
2021/12/01 05:41:12;;;;;;;;;;;;;;;18.99;52.06;99290.69;7283119;19;152306;-51
2021/12/01 05:43:38;;;;;;;;;;;;;;;19.07;51.60;99295.44;7287671;19;151655;-51
2021/12/01 05:46:05;;;;;;;;;;;;;;;19.14;51.77;99292.09;7285325;19;152649;-50
2021/12/01 05:48:32;;;;;;;;;;;;;;;19.21;51.92;99298.81;7286462;19;153279;-50
2021/12/01 05:50:59;;;;;;;;;;;;;;;19.28;51.45;99298.25;7286553;19;152225;-51
2021/12/01 05:53:26;;;;;;;;;;;;;;;19.35;51.37;99304.16;7285153;19;153691;-50
2021/12/01 05:55:52;;;;;;;;;;;;;;;19.43;51.31;99303.28;7285413;19;154162;-50
2021/12/01 05:58:19;;;;;;;;;;;;;;;19.48;51.60;99295.53;7286795;19;151837;-50
2021/12/01 06:00:46;;;;;;;;;;;;;;;19.56;51.38;99306.97;7289940;19;153489;-50
2021/12/01 06:03:13;;;;;;;;;;;;;;;19.62;51.12;99316.84;7286986;19;151734;-50
2021/12/01 06:05:40;;;;;;;;;;;;;;;19.70;50.90;99318.75;7285638;19;152668;-50
2021/12/01 06:08:07;;;;;;;;;;;;;;;19.77;50.75;99319.00;7284578;19;152607;-51
2021/12/01 06:10:34;;;;;;;;;;;;;;;19.81;50.13;99325.53;7285134;19;152846;-50
2021/12/01 06:13:01;;;;;;;;;;;;;;;19.88;50.20;99328.63;7286818;19;152594;-50
2021/12/01 06:15:29;;;;;;;;;;;;;;;19.93;50.01;99339.63;7285560;19;153103;-51
2021/12/01 06:17:58;;;;;;;;;;;;;;;20.01;49.78;99343.50;7285827;19;152131;-50
2021/12/01 06:20:25;;;;;;;;;;;;;;;20.07;49.43;99350.56;7290224;19;151798;-50
2021/12/01 06:22:52;;;;;;;;;;;;;;;20.13;49.73;99360.38;7285320;19;152309;-50
2021/12/01 06:25:19;;;;;;;;;;;;;;;20.18;49.61;99357.38;7286280;19;152765;-50
2021/12/01 06:27:51;;;;;;;;;;;;;;;20.24;49.86;99356.81;7285167;19;153515;-50
2021/12/01 06:30:18;;;;;;;;;;;;;;;20.29;49.44;99361.38;7285999;19;152033;-50
2021/12/01 06:32:45;;;;;;;;;;;;;;;20.34;48.79;99359.22;7283470;19;152658;-50
2021/12/01 06:35:12;;;;;;;;;;;;;;;20.40;48.91;99359.81;7285323;19;153231;-50
2021/12/01 06:37:39;;;;;;;;;;;;;;;20.46;48.70;99366.03;7284068;19;152145;-50
2021/12/01 06:40:06;;;;;;;;;;;;;;;20.51;48.58;99365.81;7285000;19;152972;-51
2021/12/01 06:42:35;;;;;;;;;;;;;;;20.55;48.28;99370.38;7291424;19;154248;-50
2021/12/01 06:45:03;;;;;;;;;;;;;;;20.61;48.20;99380.22;7285452;19;153491;-50
2021/12/01 06:47:29;;;;;;;;;;;;;;;20.66;48.36;99382.00;7283619;19;153722;-50
2021/12/01 06:49:56;;;;;;;;;;;;;;;20.71;48.26;99381.78;7285877;19;152059;-50
2021/12/01 06:52:23;;;;;;;;;;;;;;;20.75;47.90;99377.09;7283937;19;152084;-50
2021/12/01 06:54:50;;;;;;;;;;;;;;;20.79;48.14;99380.84;7282472;19;154320;-50
2021/12/01 06:57:17;;;;;;;;;;;;;;;20.83;48.53;99388.22;7284135;19;152612;-50
2021/12/01 06:59:43;;;;;;;;;;;;;;;20.88;48.12;99394.78;7284105;19;153123;-50
2021/12/01 07:02:10;;;;;;;;;;;;;;;20.94;48.08;99401.81;7283803;19;152629;-50
2021/12/01 07:04:37;;;;;;;;;;;;;;;20.99;48.12;99393.13;7292157;19;151779;-50
2021/12/01 07:07:04;;;;;;;;;;;;;;;21.01;47.99;99397.25;7284008;19;153274;-50
2021/12/01 07:09:30;;;;;;;;;;;;;;;21.06;47.64;99399.00;7285905;19;152072;-50
2021/12/01 07:11:57;;;;;;;;;;;;;;;21.10;47.71;99397.13;7284476;19;152574;-50
2021/12/01 07:14:24;;;;;;;;;;;;;;;21.13;47.49;99397.28;7284342;19;153366;-51
2021/12/01 07:16:50;;;;;;;;;;;;;;;21.18;47.67;99402.66;7284450;19;152124;-50
2021/12/01 07:19:17;;;;;;;;;;;;;;;21.23;47.83;99405.25;7283869;19;153678;-50
2021/12/01 07:21:44;;;;;;;;;;;;;;;21.29;46.88;99405.84;7283831;19;153603;-51
2021/12/01 07:24:11;;;;;;;;;;;;;;;21.31;46.37;99403.47;7284541;19;151890;-52
2021/12/01 07:26:38;;;;;;;;;;;;;;;21.35;45.61;99407.22;7291112;19;152730;-51
2021/12/01 07:29:05;;;;;;;;;;;;;;;21.40;45.54;99406.16;7284202;19;152068;-51
2021/12/01 07:31:31;;;;;;;;;;;;;;;21.42;45.10;99407.47;7284486;19;153265;-52
2021/12/01 07:33:58;;;;;;;;;;;;;;;21.47;44.74;99410.06;7283429;19;153754;-51
2021/12/01 07:36:25;;;;;;;;;;;;;;;21.51;44.67;99410.97;7284383;19;152372;-51
2021/12/01 07:38:53;;;;;;;;;;;;;;;21.56;44.33;99427.59;7282704;19;152712;-51
2021/12/01 07:41:20;;;;;;;;;;;;;;;21.54;43.91;99420.69;7280116;19;153648;-51
2021/12/01 07:43:47;;;;;;;;;;;;;;;21.54;43.65;99427.13;7282524;19;151751;-51
2021/12/01 07:46:14;;;;;;;;;;;;;;;21.54;43.06;99420.69;7282700;19;152841;-51
2021/12/01 07:48:41;;;;;;;;;;;;;;;21.41;41.47;99431.13;7290327;19;153350;-51
2021/12/01 07:51:08;;;;;;;;;;;;;;;21.49;41.77;99426.53;7281884;19;152594;-51
2021/12/01 07:53:35;;;;;;;;;;;;;;;21.50;41.51;99426.19;7282662;19;153355;-52
2021/12/01 07:56:03;;;;;;;;;;;;;;;21.52;42.05;99434.28;7281545;19;152128;-51
2021/12/01 07:58:29;;;;;;;;;;;;;;;21.54;41.92;99429.94;7282957;19;152964;-51
2021/12/01 08:00:56;;;;;;;;;;;;;;;21.57;41.53;99431.25;7279739;19;154285;-55
2021/12/01 08:03:23;;;;;;;;;;;;;;;21.58;41.42;99433.69;7285136;19;151560;-52
2021/12/01 08:05:50;;;;;;;;;;;;;;;21.58;41.56;99438.47;7288548;19;152674;-51
2021/12/01 08:08:17;;;;;;;;;;;;;;;21.60;41.54;99453.00;7288446;19;154204;-51
2021/12/01 08:10:45;;;;;;;;;;;;;;;21.61;41.23;99444.25;7297276;19;151960;-51
2021/12/01 08:13:12;;;;;;;;;;;;;;;21.63;41.55;99455.94;7288304;19;153837;-51
2021/12/01 08:15:47;;;;;;;;;;;;;;;21.64;41.63;99451.13;7290339;19;151956;-52
2021/12/01 08:18:14;;;;;;;;;;;;;;;21.69;41.57;99456.53;7289380;19;153651;-52
2021/12/01 08:20:41;;;;;;;;;;;;;;;21.69;41.33;99451.72;7286946;19;153274;-51
2021/12/01 08:23:08;;;;;;;;;;;;;;;21.72;41.60;99464.25;7289518;19;151932;-52
2021/12/01 08:25:35;;;;;;;;;;;;;;;21.78;41.57;99462.00;7289127;19;152612;-52
2021/12/01 08:28:02;;;;;;;;;;;;;;;21.78;41.21;99464.81;7288121;19;154139;-52
2021/12/01 08:30:30;;;;;;;;;;;;;;;21.79;41.12;99463.66;7294491;19;151676;-52
2021/12/01 08:32:57;;;;;;;;;;;;;;;21.78;41.03;99467.63;7288218;19;154426;-52
2021/12/01 08:35:24;;;;;;;;;;;;;;;21.78;41.27;99473.25;7288850;19;152017;-51
2021/12/01 08:37:51;;;;;;;;;;;;;;;21.78;41.14;99476.06;7289322;19;152943;-52
2021/12/01 08:40:18;;;;;;;;;;;;;;;21.77;41.06;99478.06;7288536;19;153555;-52
2021/12/01 08:42:46;;;;;;;;;;;;;;;21.76;41.20;99472.81;7288885;19;152975;-52
2021/12/01 08:45:13;;;;;;;;;;;;;;;21.73;40.88;99475.13;7290939;19;153817;-52
2021/12/01 08:47:40;;;;;;;;;;;;;;;21.73;41.25;99472.31;7289306;19;153797;-52
2021/12/01 08:50:08;;;;;;;;;;;;;;;21.71;41.00;99493.53;7290162;19;151712;-52
2021/12/01 08:52:35;;;;;;;;;;;;;;;21.69;40.97;99484.63;7294770;19;151947;-52
2021/12/01 08:55:03;;;;;;;;;;;;;;;21.67;40.81;99493.41;7290318;19;151742;-52
2021/12/01 08:57:30;;;;;;;;;;;;;;;21.63;41.13;99481.22;7288724;19;151985;-52
2021/12/01 08:59:56;;;;;;;;;;;;;;;21.61;41.22;99489.22;7289287;19;153235;-51
2021/12/01 09:02:23;;;;;;;;;;;;;;;21.60;41.00;99489.56;7286905;19;151930;-52
2021/12/01 09:04:50;;;;;;;;;;;;;;;21.57;41.03;99490.25;7288648;19;153384;-52
2021/12/01 09:07:18;;;;;;;;;;;;;;;21.53;41.06;99497.75;7287573;19;152648;-52
2021/12/01 09:09:44;;;;;;;;;;;;;;;21.50;41.17;99493.66;7289150;19;152920;-52
2021/12/01 09:12:13;;;;;;;;;;;;;;;21.51;41.20;99495.28;7289575;19;152765;-52
2021/12/01 09:14:41;;;;;;;;;;;;;;;21.50;41.36;99499.25;7295657;19;154441;-51
2021/12/01 09:17:09;;;;;;;;;;;;;;;21.51;41.03;99500.09;7288034;19;152615;-51
2021/12/01 09:19:36;;;;;;;;;;;;;;;21.52;41.27;99496.94;7288249;19;154451;-52
2021/12/01 09:22:03;;;;;;;;;;;;;;;21.53;41.29;99497.75;7285379;19;153246;-52
2021/12/01 09:24:30;;;;;;;;;;;;;;;21.56;41.08;99488.63;7289147;19;152105;-52
2021/12/01 09:26:58;;;;;;;;;;;;;;;21.60;41.09;99495.16;7287660;19;154195;-52
2021/12/01 09:29:27;;;;;;;;;;;;;;;21.61;41.15;99494.00;7288251;19;152283;-52
2021/12/01 09:31:57;;;;;;;;;;;;;;;21.62;41.00;99495.66;7288514;19;151627;-52
2021/12/01 09:34:25;;;;;;;;;;;;;;;21.64;40.83;99499.75;7287922;19;153310;-52
2021/12/01 09:36:52;;;;;;;;;;;;;;;21.65;40.77;99500.56;7296628;19;151843;-52
2021/12/01 09:39:19;;;;;;;;;;;;;;;21.65;40.81;99509.81;7286674;19;153918;-52
2021/12/01 09:41:46;;;;;;;;;;;;;;;21.66;40.76;99505.84;7286226;19;151539;-52
2021/12/01 09:44:13;;;;;;;;;;;;;;;21.65;40.51;99512.63;7288917;19;152651;-51
2021/12/01 09:46:39;;;;;;;;;;;;;;;21.66;40.86;99505.03;7287448;19;154046;-52
2021/12/01 09:49:06;;;;;;;;;;;;;;;21.65;40.44;99509.00;7288454;19;151737;-52
2021/12/01 09:51:33;;;;;;;;;;;;;;;21.64;40.43;99513.78;7288457;19;152793;-52
2021/12/01 09:54:02;;;;;;;;;;;;;;;21.62;40.32;99520.94;7286415;19;154093;-52
2021/12/01 09:56:29;;;;;;;;;;;;;;;21.62;40.50;99516.13;7288343;19;151888;-52
2021/12/01 09:58:57;;;;;;;;;;;;;;;21.61;40.62;99516.50;7293952;19;153369;-52
2021/12/01 10:01:25;;;;;;;;;;;;;;;21.60;40.66;99517.66;7286501;19;152152;-51
2021/12/01 10:03:56;;;;;;;;;;;;;;;21.58;40.44;99520.81;7287980;19;153693;-51
2021/12/01 10:06:23;;;;;;;;;;;;;;;21.56;40.18;99525.16;7283674;19;153186;-52
2021/12/01 10:08:52;;;;;;;;;;;;;;;21.54;40.14;99525.50;7285320;19;151983;-52
2021/12/01 10:11:22;;;;;;;;;;;;;;;21.54;40.52;99508.63;7287733;19;152961;-52
2021/12/01 10:13:50;;;;;;;;;;;;;;;21.52;40.37;99525.03;7284966;19;153491;-52
2021/12/01 10:16:18;;;;;;;;;;;;;;;21.48;40.12;99514.84;7284958;19;152005;-52
2021/12/01 10:18:46;;;;;;;;;;;;;;;21.47;40.33;99524.44;7287402;19;152660;-52
2021/12/01 10:21:15;;;;;;;;;;;;;;;21.44;40.22;99525.94;7292238;19;151934;-52
2021/12/01 10:23:45;;;;;;;;;;;;;;;21.43;40.33;99523.50;7286851;19;153872;-51
2021/12/01 10:26:14;;;;;;;;;;;;;;;21.42;40.58;99524.66;7283756;19;153927;-52
2021/12/01 10:28:49;;;;;;;;;;;;;;;21.39;40.41;99529.00;7287250;19;151814;-52
2021/12/01 10:31:30;;;;;;;;;;;;;;;21.37;40.58;99536.94;7286716;19;153119;-51
2021/12/01 10:34:15;;;;;;;;;;;;;;;21.34;40.48;99518.00;7284368;19;154481;-51
2021/12/01 10:36:42;;;;;;;;;;;;;;;21.32;40.45;99525.94;7286937;19;151636;-51
2021/12/01 10:39:09;;;;;;;;;;;;;;;21.26;40.46;99514.09;7287038;19;152554;-51
2021/12/01 10:41:40;;;;;;;;;;;;;;;21.23;40.34;99516.78;7290938;19;154851;-51
2021/12/01 10:44:12;;;;;;;;;;;;;;;21.23;39.83;99509.19;7286988;19;153064;-51
2021/12/01 10:46:49;;;;;;;;;;;;;;;21.18;40.29;99515.03;7285386;19;154008;-51
2021/12/01 10:49:17;;;;;;;;;;;;;;;21.16;40.32;99511.75;7285294;19;151587;-52
2021/12/01 10:51:45;;;;;;;;;;;;;;;21.14;40.23;99522.50;7286121;19;153505;-51
2021/12/01 10:54:19;;;;;;;;;;;;;;;21.13;40.12;99518.03;7285831;19;153315;-51
2021/12/01 10:56:46;;;;;;;;;;;;;;;21.09;39.91;99516.25;7284120;19;152612;-51
2021/12/01 10:59:15;;;;;;;;;;;;;;;21.05;40.05;99510.50;7283717;19;152955;-52
2021/12/01 11:01:43;;;;;;;;;;;;;;;21.01;39.90;99500.31;7283375;19;153792;-51
2021/12/01 11:04:10;;;;;;;;;;;;;;;20.99;40.04;99511.88;7293632;19;152825;-51
2021/12/01 11:06:39;;;;;;;;;;;;;;;20.96;40.05;99506.97;7281403;19;153856;-52
2021/12/01 11:09:07;;;;;;;;;;;;;;;20.92;40.21;99510.81;7286931;19;151831;-51
2021/12/01 11:11:36;;;;;;;;;;;;;;;20.89;40.09;99503.09;7286775;19;152191;-53
2021/12/01 11:14:23;;;;;;;;;;;;;;;20.85;40.10;99492.53;7284211;19;153326;-53
2021/12/01 11:16:51;;;;;;;;;;;;;;;20.84;40.39;99488.13;7286015;19;151801;-53
2021/12/01 11:19:30;;;;;;;;;;;;;;;20.81;40.12;99499.19;7286285;19;152840;-51
2021/12/01 11:22:17;;;;;;;;;;;;;;;20.79;39.95;99496.75;7282913;19;153595;-52
2021/12/01 11:24:44;;;;;;;;;;;;;;;20.77;39.99;99501.88;7284687;19;152323;-51
2021/12/01 11:27:11;;;;;;;;;;;;;;;20.75;40.28;99500.59;7292123;19;152928;-51
2021/12/01 11:29:46;;;;;;;;;;;;;;;20.74;39.95;99499.78;7285244;19;152387;-51
2021/12/01 11:32:13;;;;;;;;;;;;;;;20.71;40.33;99503.28;7285850;19;152959;-51
2021/12/01 11:34:41;;;;;;;;;;;;;;;20.68;39.97;99505.94;7282537;19;153280;-51
2021/12/01 11:37:08;;;;;;;;;;;;;;;20.65;40.00;99510.25;7285044;19;151798;-51
2021/12/01 11:39:35;;;;;;;;;;;;;;;20.61;40.40;99506.50;7285565;19;153571;-51
2021/12/01 11:42:02;;;;;;;;;;;;;;;20.55;39.90;99513.47;7282439;19;154063;-51
2021/12/01 11:44:30;;;;;;;;;;;;;;;20.55;39.90;99515.47;7285099;19;152177;-52
2021/12/01 11:47:04;;;;;;;;;;;;;;;20.53;39.94;99512.19;7269219;19;153298;-51
2021/12/01 11:49:34;;;;;;;;;;;;;;;20.49;40.46;99506.44;7279527;19;153225;-51
2021/12/01 11:52:04;;;;;;;;;;;;;;;20.54;40.25;99516.63;7282627;19;151915;-51
2021/12/01 11:54:33;;;;;;;;;;;;;;;20.52;40.03;99511.38;7283507;19;153240;-51
2021/12/01 11:57:02;;;;;;;;;;;;;;;20.52;40.45;99516.97;7284104;19;151814;-51
2021/12/01 11:59:31;;;;;;;;;;;;;;;20.50;40.12;99522.09;7282509;19;153803;-51
2021/12/01 12:01:59;;;;;;;;;;;;;;;20.48;40.17;99515.22;7281472;19;153459;-51
2021/12/01 12:04:26;;;;;;;;;;;;;;;20.55;40.61;99519.09;7283582;19;153107;-51
2021/12/01 12:07:02;;;;;;;;;;;;;;;20.53;40.97;99513.03;7281204;19;152126;-51
2021/12/01 12:10:15;;;;;;;;;;;;;;;20.52;40.61;99507.75;7283112;19;154092;-51
2021/12/01 12:12:46;;;;;;;;;;;;;;;20.55;40.15;99507.88;7286435;19;152198;-51
2021/12/01 12:15:40;;;;;;;;;;;;;;;20.58;40.34;99501.56;7281909;19;153722;-51
2021/12/01 12:18:10;;;;;;;;;;;;;;;20.62;40.31;99502.53;7281629;19;152150;-51
2021/12/01 12:20:54;;;;;;;;;;;;;;;20.69;40.33;99501.97;7280021;19;152030;-51
2021/12/01 12:23:31;;;;;;;;;;;;;;;20.72;40.21;99504.91;7282149;19;153735;-51
2021/12/01 12:25:58;;;;;;;;;;;;;;;20.77;40.01;99499.06;7281200;19;152164;-51
2021/12/01 12:28:37;;;;;;;;;;;;;;;20.81;40.29;99508.44;7282888;19;152994;-51
2021/12/01 12:31:24;;;;;;;;;;;;;;;20.86;40.11;99505.41;7279992;19;152242;-51
2021/12/01 12:34:04;;;;;;;;;;;;;;;20.91;40.14;99497.94;7289636;19;151791;-51
2021/12/01 12:36:35;;;;;;;;;;;;;;;20.96;39.83;99492.94;7277412;19;153453;-51
2021/12/01 12:39:05;;;;;;;;;;;;;;;21.03;40.02;99512.03;7279395;19;152237;-51
2021/12/01 12:41:53;;;;;;;;;;;;;;;21.09;39.83;99516.25;7281881;19;152662;-51
2021/12/01 12:44:26;;;;;;;;;;;;;;;21.15;39.91;99500.84;7277931;19;152941;-51
2021/12/01 12:47:01;;;;;;;;;;;;;;;21.20;39.57;99501.47;7279751;19;152478;-51